Time;durP1;ratioP1;P1;durP2;ratioP2;P2;SDS_P1;SDS_P2;PMS_P1;PMS_P2;Temp;Humidity;BMP_temperature;BMP_pressure;BME280_temperature;BME280_humidity;BME280_pressure;Samples;Min_cycle;Max_cycle;Signal;HPM_P1;HPM_P2
2022/10/07 00:01:33;;;;;;;;;;;17.90;59.50;;;;;;5094809;28;20010;-65
2022/10/07 00:03:58;;;;;;;;;;;17.90;58.80;;;;;;5095436;28;19926;-66
2022/10/07 00:06:24;;;;;;;;;;;17.90;58.80;;;;;;5113432;28;19924;-65
2022/10/07 00:08:51;;;;;;;;;;;17.90;58.80;;;;;;5095432;28;19919;-65
2022/10/07 00:11:25;;;;;;;;;;;18.00;58.90;;;;;;5113346;28;19920;-65
2022/10/07 00:13:52;;;;;;;;;;;17.90;58.80;;;;;;5094888;28;19942;-65
2022/10/07 00:16:19;;;;;;;;;;;17.90;58.80;;;;;;5095324;28;19930;-65
2022/10/07 00:18:47;;;;;;;;;;;17.90;58.80;;;;;;5094945;28;19931;-65
2022/10/07 00:21:13;;;;;;;;;;;17.90;58.80;;;;;;5113168;28;20020;-65
2022/10/07 00:23:41;;;;;;;;;;;17.90;58.80;;;;;;5113089;28;19926;-65
2022/10/07 00:26:07;;;;;;;;;;;17.90;58.80;;;;;;5113056;28;19920;-65
2022/10/07 00:28:33;;;;;;;;;;;17.80;58.70;;;;;;5113221;28;19986;-65
2022/10/07 00:30:59;;;;;;;;;;;17.90;58.80;;;;;;5094782;28;20395;-65
2022/10/07 00:33:26;;;;;;;;;;;17.80;58.70;;;;;;5094670;28;20033;-65
2022/10/07 00:35:51;;;;;;;;;;;17.80;58.70;;;;;;5113042;28;19931;-65
2022/10/07 00:38:17;;;;;;;;;;;17.80;58.70;;;;;;5094848;28;19920;-65
2022/10/07 00:40:42;;;;;;;;;;;17.90;58.80;;;;;;5094897;28;20021;-65
2022/10/07 00:46:06;;;;;;;;;;;17.80;58.70;;;;;;5110317;27;19918;-66
2022/10/07 00:48:33;;;;;;;;;;;17.80;58.70;;;;;;5108857;28;19927;-66
2022/10/07 00:51:00;;;;;;;;;;;17.80;58.70;;;;;;5109132;28;19945;-66
2022/10/07 00:53:28;;;;;;;;;;;17.80;58.70;;;;;;5110123;28;20307;-66
2022/10/07 00:55:56;;;;;;;;;;;17.80;58.70;;;;;;5109143;28;20374;-66
2022/10/07 00:58:22;;;;;;;;;;;17.80;58.70;;;;;;5108777;28;19920;-66
2022/10/07 01:00:48;;;;;;;;;;;17.80;58.70;;;;;;5108937;28;20406;-66
2022/10/07 01:03:14;;;;;;;;;;;17.80;58.80;;;;;;5109808;28;19963;-66
2022/10/07 01:05:40;;;;;;;;;;;17.80;58.80;;;;;;5108451;28;19938;-66
2022/10/07 01:08:05;;;;;;;;;;;17.70;58.70;;;;;;5109766;28;19969;-66
2022/10/07 01:10:38;;;;;;;;;;;17.70;58.70;;;;;;5108757;28;19926;-66
2022/10/07 01:13:06;;;;;;;;;;;17.70;58.70;;;;;;5108757;28;19920;-66
2022/10/07 01:18:17;;;;;;;;;;;17.70;58.70;;;;;;5110389;27;19916;-65
2022/10/07 01:21:00;;;;;;;;;;;17.70;58.70;;;;;;5126353;27;20306;-65
2022/10/07 01:23:46;;;;;;;;;;;17.70;58.70;;;;;;5108967;28;19924;-66
2022/10/07 01:26:31;;;;;;;;;;;17.70;58.70;;;;;;5108806;28;19920;-66
2022/10/07 01:28:59;;;;;;;;;;;17.70;58.70;;;;;;5109834;28;19920;-66
2022/10/07 01:31:31;;;;;;;;;;;17.70;58.70;;;;;;5108724;28;19924;-66
2022/10/07 01:33:56;;;;;;;;;;;17.70;58.70;;;;;;5109060;28;19920;-66
2022/10/07 01:36:23;;;;;;;;;;;17.60;58.70;;;;;;5108817;28;19978;-65
2022/10/07 01:38:52;;;;;;;;;;;17.70;58.80;;;;;;5108870;28;20383;-66
2022/10/07 01:41:18;;;;;;;;;;;17.70;58.70;;;;;;5109670;28;19920;-66
2022/10/07 01:43:45;;;;;;;;;;;17.60;58.70;;;;;;5108845;28;20019;-66
2022/10/07 01:46:14;;;;;;;;;;;17.70;58.80;;;;;;5108549;28;19920;-65
2022/10/07 01:48:40;;;;;;;;;;;17.60;58.70;;;;;;5109859;28;19931;-66
2022/10/07 01:51:07;;;;;;;;;;;17.60;58.70;;;;;;5108580;28;19931;-66
2022/10/07 01:56:33;;;;;;;;;;;17.60;58.70;;;;;;5089879;28;20290;-65
2022/10/07 02:02:03;;;;;;;;;;;17.60;58.70;;;;;;5089919;28;19912;-66
2022/10/07 02:07:16;;;;;;;;;;;17.60;58.70;;;;;;5089905;28;19918;-66
2022/10/07 02:09:46;;;;;;;;;;;17.50;58.60;;;;;;5088791;28;19924;-66
2022/10/07 02:17:45;;;;;;;;;;;17.50;58.60;;;;;;5127794;27;1857407;-65
2022/10/07 02:20:12;;;;;;;;;;;17.50;58.70;;;;;;5174448;27;20434;-66
2022/10/07 02:22:38;;;;;;;;;;;17.50;58.70;;;;;;5174592;27;19918;-66
2022/10/07 02:25:04;;;;;;;;;;;17.50;58.70;;;;;;5174261;27;19926;-66
2022/10/07 02:27:32;;;;;;;;;;;17.40;58.60;;;;;;5174090;27;19918;-66
2022/10/07 02:30:00;;;;;;;;;;;17.50;58.70;;;;;;5174748;27;19919;-66
2022/10/07 02:32:27;;;;;;;;;;;17.50;58.60;;;;;;5174473;27;20286;-65
2022/10/07 02:34:55;;;;;;;;;;;17.50;58.70;;;;;;5174466;27;20474;-66
2022/10/07 02:37:23;;;;;;;;;;;17.50;58.70;;;;;;5173901;27;19922;-66
2022/10/07 02:39:49;;;;;;;;;;;17.40;58.60;;;;;;5192784;27;19962;-65
2022/10/07 02:45:03;;;;;;;;;;;17.50;58.70;;;;;;5089965;28;19912;-66
2022/10/07 02:47:33;;;;;;;;;;;17.40;58.60;;;;;;5088783;28;20363;-66
2022/10/07 02:50:00;;;;;;;;;;;17.50;58.70;;;;;;5088558;28;20217;-65
2022/10/07 02:52:30;;;;;;;;;;;17.40;58.60;;;;;;5088601;28;20283;-66
2022/10/07 02:54:59;;;;;;;;;;;17.50;58.70;;;;;;5088448;28;19924;-66
2022/10/07 02:57:26;;;;;;;;;;;17.50;58.70;;;;;;5088708;28;19920;-66
2022/10/07 02:59:53;;;;;;;;;;;17.40;58.70;;;;;;5088359;28;19942;-66
2022/10/07 03:02:38;;;;;;;;;;;17.40;58.60;;;;;;5089528;28;19920;-66
2022/10/07 03:05:05;;;;;;;;;;;17.40;58.70;;;;;;5089414;28;20300;-66
2022/10/07 03:07:31;;;;;;;;;;;17.40;58.60;;;;;;5089500;28;19967;-66
2022/10/07 03:09:57;;;;;;;;;;;17.40;58.70;;;;;;5088488;28;20006;-66
2022/10/07 03:12:22;;;;;;;;;;;17.40;58.70;;;;;;5088181;28;20413;-66
2022/10/07 03:14:48;;;;;;;;;;;17.40;58.60;;;;;;5089293;28;19920;-66
2022/10/07 03:17:15;;;;;;;;;;;17.40;58.70;;;;;;5088042;28;19921;-66
2022/10/07 03:19:41;;;;;;;;;;;17.40;58.70;;;;;;5088225;28;19986;-66
2022/10/07 03:22:07;;;;;;;;;;;17.40;58.70;;;;;;5105217;28;20010;-66
2022/10/07 03:24:33;;;;;;;;;;;17.40;58.70;;;;;;5087887;28;20382;-66
2022/10/07 03:26:58;;;;;;;;;;;17.40;58.70;;;;;;5089278;28;19958;-66
2022/10/07 03:29:25;;;;;;;;;;;17.40;58.60;;;;;;5088103;28;20460;-65
2022/10/07 03:31:53;;;;;;;;;;;17.40;58.70;;;;;;5087806;28;19927;-66
2022/10/07 03:34:19;;;;;;;;;;;17.40;58.60;;;;;;5089053;28;19971;-66
2022/10/07 03:36:44;;;;;;;;;;;17.40;58.60;;;;;;5088927;28;19920;-66
2022/10/07 03:39:10;;;;;;;;;;;17.40;58.60;;;;;;5087626;28;19965;-66
2022/10/07 03:41:35;;;;;;;;;;;17.30;58.60;;;;;;5087610;28;19966;-66
2022/10/07 03:44:01;;;;;;;;;;;17.40;58.60;;;;;;5087248;28;19924;-66
2022/10/07 03:46:27;;;;;;;;;;;17.30;58.60;;;;;;5087431;28;20372;-66
2022/10/07 03:48:52;;;;;;;;;;;17.30;58.50;;;;;;5088745;28;19928;-66
2022/10/07 03:51:18;;;;;;;;;;;17.30;58.50;;;;;;5087237;28;19920;-66
2022/10/07 03:53:43;;;;;;;;;;;17.30;58.50;;;;;;5088901;28;19945;-66
2022/10/07 03:56:09;;;;;;;;;;;17.30;58.50;;;;;;5074502;28;20372;-65
2022/10/07 03:58:34;;;;;;;;;;;17.30;58.50;;;;;;5075069;28;19920;-66
2022/10/07 04:01:04;;;;;;;;;;;17.40;58.60;;;;;;5073645;28;19920;-65
2022/10/07 04:03:29;;;;;;;;;;;17.30;58.50;;;;;;5073619;28;20410;-66
2022/10/07 04:05:58;;;;;;;;;;;17.30;58.50;;;;;;5074830;28;19920;-66
2022/10/07 04:08:26;;;;;;;;;;;17.30;58.60;;;;;;5090754;28;19963;-66
2022/10/07 04:10:52;;;;;;;;;;;17.30;58.60;;;;;;5073514;28;19920;-66
2022/10/07 04:13:18;;;;;;;;;;;17.30;58.50;;;;;;5073776;28;19970;-66
2022/10/07 04:15:43;;;;;;;;;;;17.30;58.50;;;;;;5073372;28;20007;-66
2022/10/07 04:18:09;;;;;;;;;;;17.30;58.50;;;;;;5073784;28;19921;-66
2022/10/07 04:20:36;;;;;;;;;;;17.30;58.50;;;;;;5074668;28;20308;-66
2022/10/07 04:23:01;;;;;;;;;;;17.30;58.60;;;;;;5073514;28;20308;-65
2022/10/07 04:25:34;;;;;;;;;;;17.30;58.50;;;;;;5074625;28;19924;-66
2022/10/07 04:28:01;;;;;;;;;;;17.30;58.60;;;;;;5073239;28;19974;-66
2022/10/07 04:30:27;;;;;;;;;;;17.30;58.50;;;;;;5074524;28;19927;-66
2022/10/07 04:32:53;;;;;;;;;;;17.30;58.50;;;;;;5073139;28;19921;-66
2022/10/07 04:35:20;;;;;;;;;;;17.30;58.50;;;;;;5074322;28;19920;-66
2022/10/07 04:37:47;;;;;;;;;;;17.30;58.50;;;;;;5074224;28;19920;-65
2022/10/07 04:40:13;;;;;;;;;;;17.30;58.50;;;;;;5073036;28;19927;-66
2022/10/07 04:45:24;;;;;;;;;;;17.30;58.50;;;;;;5094236;28;19920;-66
2022/10/07 04:47:49;;;;;;;;;;;17.30;58.50;;;;;;5076423;28;20474;-66
2022/10/07 04:50:15;;;;;;;;;;;17.30;59.30;;;;;;5076401;28;20351;-65
2022/10/07 04:52:41;;;;;;;;;;;17.30;58.50;;;;;;5094139;28;19920;-65
2022/10/07 04:55:07;;;;;;;;;;;17.20;58.40;;;;;;5093289;28;19920;-66
2022/10/07 04:57:33;;;;;;;;;;;17.30;58.40;;;;;;5076123;28;20352;-66
2022/10/07 05:00:00;;;;;;;;;;;17.30;58.40;;;;;;5094170;28;20010;-66
2022/10/07 05:02:26;;;;;;;;;;;17.30;58.50;;;;;;5076331;28;20029;-66
2022/10/07 05:04:51;;;;;;;;;;;17.30;58.40;;;;;;5093831;28;19928;-66
2022/10/07 05:07:17;;;;;;;;;;;17.20;58.40;;;;;;5074799;28;20175;-66
2022/10/07 05:09:42;;;;;;;;;;;17.20;58.30;;;;;;5076052;28;19965;-66
2022/10/07 05:12:09;;;;;;;;;;;17.20;58.40;;;;;;5092608;28;20337;-65
2022/10/07 05:14:34;;;;;;;;;;;17.20;58.40;;;;;;5093856;28;19927;-66
2022/10/07 05:17:00;;;;;;;;;;;17.20;58.30;;;;;;5093760;28;19920;-66
2022/10/07 05:19:25;;;;;;;;;;;17.20;58.30;;;;;;5075806;28;19920;-66
2022/10/07 05:21:51;;;;;;;;;;;17.20;58.40;;;;;;5093726;28;19920;-66
2022/10/07 05:24:16;;;;;;;;;;;17.20;58.30;;;;;;5075401;28;19998;-66
2022/10/07 05:26:42;;;;;;;;;;;17.20;58.30;;;;;;5059051;28;19920;-66
2022/10/07 05:29:08;;;;;;;;;;;17.20;58.30;;;;;;5093458;28;19931;-66
2022/10/07 05:31:33;;;;;;;;;;;17.20;59.10;;;;;;5092222;28;19920;-66
2022/10/07 05:33:59;;;;;;;;;;;17.20;58.30;;;;;;5075624;28;20252;-66
2022/10/07 05:36:25;;;;;;;;;;;17.20;58.30;;;;;;5093313;28;19935;-69
2022/10/07 05:38:57;;;;;;;;;;;17.20;58.30;;;;;;5072589;28;19973;-68
2022/10/07 05:41:22;;;;;;;;;;;17.20;59.30;;;;;;5092140;28;19962;-70
2022/10/07 05:43:48;;;;;;;;;;;17.30;59.30;;;;;;5072362;28;19964;-68
2022/10/07 05:46:15;;;;;;;;;;;17.50;59.60;;;;;;5073916;28;19920;-68
2022/10/07 05:48:44;;;;;;;;;;;17.60;59.40;;;;;;5070390;28;19938;-68
2022/10/07 05:51:10;;;;;;;;;;;17.70;59.10;;;;;;5070485;28;19926;-68
2022/10/07 05:53:40;;;;;;;;;;;17.80;58.80;;;;;;5089758;28;19920;-68
2022/10/07 05:56:07;;;;;;;;;;;17.80;58.50;;;;;;5068033;28;20387;-68
2022/10/07 05:58:34;;;;;;;;;;;17.90;58.60;;;;;;5061720;28;20003;-70
2022/10/07 06:00:59;;;;;;;;;;;18.00;58.60;;;;;;5059025;28;19973;-69
2022/10/07 06:03:25;;;;;;;;;;;18.00;58.40;;;;;;5070951;28;19924;-68
2022/10/07 06:05:51;;;;;;;;;;;18.10;58.40;;;;;;5085357;28;19920;-68
2022/10/07 06:08:18;;;;;;;;;;;18.10;58.20;;;;;;5067175;28;19930;-68
2022/10/07 06:13:30;;;;;;;;;;;18.20;57.80;;;;;;5054868;28;19939;-69
2022/10/07 06:15:59;;;;;;;;;;;18.30;57.70;;;;;;5064772;28;19919;-69
2022/10/07 06:18:24;;;;;;;;;;;18.20;57.60;;;;;;5065021;28;19920;-69
2022/10/07 06:20:52;;;;;;;;;;;18.30;57.60;;;;;;5066402;28;20257;-70
2022/10/07 06:23:17;;;;;;;;;;;18.30;57.40;;;;;;5083602;28;19935;-70
2022/10/07 06:25:44;;;;;;;;;;;18.30;57.40;;;;;;5068332;28;19920;-69
2022/10/07 06:28:09;;;;;;;;;;;18.40;57.50;;;;;;5077443;28;20379;-69
2022/10/07 06:30:36;;;;;;;;;;;18.40;57.50;;;;;;5059108;28;19927;-69
2022/10/07 06:33:02;;;;;;;;;;;18.40;57.60;;;;;;5068798;28;19925;-69
2022/10/07 06:35:27;;;;;;;;;;;18.40;57.60;;;;;;5056077;28;19920;-69
2022/10/07 06:37:53;;;;;;;;;;;18.40;57.50;;;;;;5071100;28;19946;-69
2022/10/07 06:40:18;;;;;;;;;;;18.40;57.50;;;;;;5071767;28;20010;-70
2022/10/07 06:42:44;;;;;;;;;;;18.40;57.50;;;;;;5054569;28;19928;-69
2022/10/07 06:45:09;;;;;;;;;;;18.40;57.60;;;;;;5072752;28;19929;-70
2022/10/07 06:47:35;;;;;;;;;;;18.40;57.80;;;;;;5052413;28;19924;-70
2022/10/07 06:50:02;;;;;;;;;;;18.40;58.50;;;;;;5072950;28;19924;-71
2022/10/07 06:52:28;;;;;;;;;;;18.40;57.80;;;;;;5056505;28;20044;-72
2022/10/07 06:54:53;;;;;;;;;;;18.50;57.80;;;;;;5070136;28;20379;-71
2022/10/07 06:57:19;;;;;;;;;;;18.50;57.80;;;;;;5074836;28;19927;-68
2022/10/07 06:59:44;;;;;;;;;;;18.60;57.70;;;;;;5073782;28;20465;-69
2022/10/07 07:02:10;;;;;;;;;;;18.60;57.70;;;;;;5052648;28;19947;-72
2022/10/07 07:04:36;;;;;;;;;;;18.60;57.90;;;;;;5055402;28;19921;-70
2022/10/07 07:07:01;;;;;;;;;;;18.60;57.80;;;;;;5054128;28;19942;-68
2022/10/07 07:09:27;;;;;;;;;;;18.60;57.80;;;;;;5052889;28;19924;-70
2022/10/07 07:11:53;;;;;;;;;;;18.60;57.60;;;;;;5052889;28;19945;-68
2022/10/07 07:14:19;;;;;;;;;;;18.60;57.80;;;;;;5071641;28;19924;-69
2022/10/07 07:16:44;;;;;;;;;;;18.60;57.90;;;;;;5053498;28;19920;-68
2022/10/07 07:19:11;;;;;;;;;;;18.60;57.50;;;;;;5053050;28;20077;-68
2022/10/07 07:21:39;;;;;;;;;;;18.50;57.40;;;;;;5071544;28;20364;-68
2022/10/07 07:24:05;;;;;;;;;;;18.50;57.60;;;;;;5069740;28;19931;-68
2022/10/07 07:26:31;;;;;;;;;;;18.50;57.50;;;;;;5054229;28;20443;-68
2022/10/07 07:28:58;;;;;;;;;;;18.50;57.60;;;;;;5068758;28;20325;-68
2022/10/07 07:31:24;;;;;;;;;;;18.50;57.70;;;;;;5051860;28;20380;-68
2022/10/07 07:33:51;;;;;;;;;;;18.50;57.90;;;;;;5071546;28;20440;-68
2022/10/07 07:36:18;;;;;;;;;;;18.50;58.00;;;;;;5058769;28;19931;-68
2022/10/07 07:39:00;;;;;;;;;;;18.50;58.10;;;;;;5072568;28;19927;-68
2022/10/07 07:41:27;;;;;;;;;;;18.40;58.00;;;;;;5069184;28;19935;-68
2022/10/07 07:43:54;;;;;;;;;;;18.40;58.10;;;;;;5053691;28;19978;-68
2022/10/07 07:46:20;;;;;;;;;;;18.50;58.20;;;;;;5073190;28;19978;-68
2022/10/07 07:48:46;;;;;;;;;;;18.50;58.20;;;;;;5071291;28;19924;-68
2022/10/07 07:51:12;;;;;;;;;;;18.50;58.20;;;;;;5053400;28;19947;-69
2022/10/07 07:53:38;;;;;;;;;;;18.50;58.40;;;;;;5053578;28;19921;-67
2022/10/07 07:56:04;;;;;;;;;;;18.50;58.40;;;;;;5071788;28;19927;-68
2022/10/07 07:58:30;;;;;;;;;;;18.50;58.10;;;;;;5057674;28;19924;-68
2022/10/07 08:00:56;;;;;;;;;;;18.50;58.00;;;;;;5060289;28;19927;-68
2022/10/07 08:03:22;;;;;;;;;;;18.50;58.10;;;;;;5072606;28;20511;-68
2022/10/07 08:05:47;;;;;;;;;;;18.40;58.10;;;;;;5072185;28;19950;-68
2022/10/07 08:08:13;;;;;;;;;;;18.40;58.10;;;;;;5072198;28;19978;-67
2022/10/07 08:10:41;;;;;;;;;;;18.40;58.20;;;;;;5070049;28;20498;-70
2022/10/07 08:13:07;;;;;;;;;;;18.30;58.10;;;;;;5060791;28;19925;-68
2022/10/07 08:15:33;;;;;;;;;;;18.30;58.10;;;;;;5076298;28;19935;-70
2022/10/07 08:17:59;;;;;;;;;;;18.30;58.20;;;;;;5074042;28;19921;-68
2022/10/07 08:20:25;;;;;;;;;;;18.30;58.50;;;;;;5058915;28;21686;-69
2022/10/07 08:22:50;;;;;;;;;;;18.30;58.50;;;;;;5072661;28;19927;-67
2022/10/07 08:25:16;;;;;;;;;;;18.30;58.70;;;;;;5058396;28;19924;-67
2022/10/07 08:27:42;;;;;;;;;;;18.40;58.90;;;;;;5071842;28;19925;-69
2022/10/07 08:30:08;;;;;;;;;;;18.40;58.90;;;;;;5076355;28;19929;-71
2022/10/07 08:32:33;;;;;;;;;;;18.50;58.90;;;;;;5053882;28;19999;-68
2022/10/07 08:34:59;;;;;;;;;;;18.60;58.70;;;;;;5074704;28;19926;-68
2022/10/07 08:37:24;;;;;;;;;;;18.60;58.60;;;;;;5058239;28;20033;-68
2022/10/07 08:39:50;;;;;;;;;;;18.70;58.70;;;;;;5074998;28;19970;-68
2022/10/07 08:42:23;;;;;;;;;;;18.60;58.60;;;;;;5060660;28;19928;-68
2022/10/07 08:44:48;;;;;;;;;;;18.60;58.50;;;;;;5055591;28;20024;-68
2022/10/07 08:47:21;;;;;;;;;;;18.60;58.80;;;;;;5050624;28;20411;-66
2022/10/07 08:55:15;;;;;;;;;;;18.60;58.90;;;;;;5018030;28;19921;-66
2022/10/07 08:57:54;;;;;;;;;;;18.70;59.00;;;;;;5005985;28;20727;-66
2022/10/07 09:00:20;;;;;;;;;;;18.70;59.10;;;;;;5005422;28;19949;-66
2022/10/07 09:05:39;;;;;;;;;;;18.70;59.20;;;;;;5063368;28;19925;-67
2022/10/07 09:08:09;;;;;;;;;;;18.70;59.20;;;;;;5059826;28;19979;-68
2022/10/07 09:10:38;;;;;;;;;;;18.70;59.10;;;;;;5041748;28;19936;-67
2022/10/07 09:13:12;;;;;;;;;;;18.70;59.30;;;;;;5035223;28;19995;-68
2022/10/07 09:15:40;;;;;;;;;;;18.70;59.20;;;;;;5034707;28;20280;-66
2022/10/07 09:18:11;;;;;;;;;;;18.80;59.30;;;;;;5038357;28;22361;-69
2022/10/07 09:20:41;;;;;;;;;;;18.70;59.20;;;;;;5049799;28;20356;-67
2022/10/07 09:23:11;;;;;;;;;;;18.70;59.30;;;;;;5035029;28;19932;-66
2022/10/07 09:25:40;;;;;;;;;;;18.80;59.40;;;;;;5041416;28;19931;-68
2022/10/07 09:28:10;;;;;;;;;;;18.80;59.30;;;;;;5036087;28;20507;-65
2022/10/07 09:30:35;;;;;;;;;;;18.80;59.30;;;;;;5034681;28;19929;-66
2022/10/07 09:33:01;;;;;;;;;;;18.80;59.20;;;;;;5054984;28;20400;-65
2022/10/07 09:35:30;;;;;;;;;;;18.80;59.40;;;;;;5052075;28;19968;-66
2022/10/07 09:37:57;;;;;;;;;;;18.80;59.70;;;;;;5040503;28;19925;-66
2022/10/07 09:43:09;;;;;;;;;;;18.90;59.70;;;;;;5092210;27;1850485;-64
2022/10/07 09:45:36;;;;;;;;;;;19.00;59.60;;;;;;5138009;27;19923;-65
2022/10/07 09:48:06;;;;;;;;;;;19.10;59.80;;;;;;5141805;27;19945;-65
2022/10/07 09:50:36;;;;;;;;;;;19.10;59.60;;;;;;5141647;27;19926;-64
2022/10/07 09:53:02;;;;;;;;;;;19.10;59.30;;;;;;5135738;27;19919;-65
2022/10/07 09:55:37;;;;;;;;;;;19.20;59.30;;;;;;5138365;27;19972;-67
2022/10/07 09:58:04;;;;;;;;;;;19.20;59.20;;;;;;5142023;27;19923;-65
2022/10/07 10:00:30;;;;;;;;;;;19.30;60.10;;;;;;5136852;27;20498;-67
2022/10/07 10:03:00;;;;;;;;;;;19.30;59.80;;;;;;5155898;27;19923;-67
2022/10/07 10:05:28;;;;;;;;;;;19.30;59.40;;;;;;5133849;27;19923;-67
2022/10/07 10:07:56;;;;;;;;;;;19.20;59.10;;;;;;5154527;27;20016;-67
2022/10/07 10:10:24;;;;;;;;;;;19.20;59.10;;;;;;5135401;27;19948;-67
2022/10/07 10:12:50;;;;;;;;;;;19.20;59.10;;;;;;5154712;27;20551;-69
2022/10/07 10:18:24;;;;;;;;;;;19.10;59.20;;;;;;5088333;27;19920;-72
2022/10/07 10:20:50;;;;;;;;;;;19.20;59.30;;;;;;5084578;28;20042;-67
2022/10/07 10:23:35;;;;;;;;;;;19.20;59.30;;;;;;5077009;28;19929;-67
2022/10/07 10:29:00;;;;;;;;;;;19.40;59.20;;;;;;5058177;28;19932;-69
2022/10/07 10:31:31;;;;;;;;;;;19.50;59.30;;;;;;5035699;28;19975;-67
2022/10/07 10:34:03;;;;;;;;;;;19.60;59.50;;;;;;5033810;28;19928;-67
2022/10/07 10:36:29;;;;;;;;;;;19.60;59.20;;;;;;5051735;28;21294;-69
2022/10/07 10:39:05;;;;;;;;;;;19.70;58.90;;;;;;5038490;28;20867;-69
2022/10/07 10:41:34;;;;;;;;;;;19.80;58.60;;;;;;5051246;28;19925;-68
2022/10/07 10:46:55;;;;;;;;;;;19.80;58.40;;;;;;5073989;27;19924;-65
2022/10/07 10:52:20;;;;;;;;;;;19.90;58.40;;;;;;5078486;27;21095;-67
2022/10/07 10:57:36;;;;;;;;;;;19.90;58.40;;;;;;5074190;27;19931;-68
2022/10/07 11:00:12;;;;;;;;;;;19.90;58.40;;;;;;5055521;28;19924;-68
2022/10/07 11:05:22;;;;;;;;;;;19.90;58.70;;;;;;5073049;27;19928;-66
2022/10/07 11:07:58;;;;;;;;;;;19.80;58.70;;;;;;5105431;28;19924;-67
2022/10/07 11:10:26;;;;;;;;;;;19.90;58.90;;;;;;5071759;28;19934;-68
2022/10/07 11:12:56;;;;;;;;;;;19.80;58.80;;;;;;5076901;28;19983;-67
2022/10/07 11:15:24;;;;;;;;;;;19.80;58.90;;;;;;5075516;28;19924;-68
2022/10/07 11:17:50;;;;;;;;;;;19.80;58.90;;;;;;5096835;28;20516;-69
2022/10/07 11:20:19;;;;;;;;;;;19.80;59.00;;;;;;5070701;28;19920;-69
2022/10/07 11:22:50;;;;;;;;;;;19.80;59.00;;;;;;5071316;28;19928;-69
2022/10/07 11:25:35;;;;;;;;;;;19.80;59.00;;;;;;5103053;28;19932;-69
2022/10/07 11:28:06;;;;;;;;;;;19.80;59.20;;;;;;5072996;28;20350;-71
2022/10/07 11:30:36;;;;;;;;;;;19.70;59.10;;;;;;5072903;28;19962;-71
2022/10/07 11:35:49;;;;;;;;;;;19.80;59.10;;;;;;5087682;27;19916;-73
2022/10/07 11:40:59;;;;;;;;;;;19.80;59.20;;;;;;5050557;28;19946;-67
2022/10/07 11:43:29;;;;;;;;;;;19.80;59.20;;;;;;5049376;28;19929;-64
2022/10/07 11:45:57;;;;;;;;;;;19.80;59.20;;;;;;5049142;28;19921;-65
2022/10/07 11:48:27;;;;;;;;;;;19.80;59.40;;;;;;5046193;28;19925;-65
2022/10/07 11:50:55;;;;;;;;;;;19.80;59.60;;;;;;5052342;28;19928;-66
2022/10/07 11:53:23;;;;;;;;;;;19.90;59.80;;;;;;5047966;28;20425;-65
2022/10/07 11:55:54;;;;;;;;;;;19.90;59.80;;;;;;5056406;28;20774;-65
2022/10/07 11:58:24;;;;;;;;;;;20.00;60.00;;;;;;5055629;28;19940;-63
2022/10/07 12:00:50;;;;;;;;;;;20.00;59.80;;;;;;5063275;28;19935;-81
2022/10/07 12:06:05;;;;;;;;;;;20.00;59.80;;;;;;5071209;27;19931;-71
2022/10/07 12:08:33;;;;;;;;;;;19.90;60.10;;;;;;5103108;27;19929;-73
2022/10/07 12:13:54;;;;;;;;;;;19.80;60.40;;;;;;5091257;27;19917;-78
2022/10/07 12:24:41;;;;;;;;;;;19.70;60.80;;;;;;5069549;27;20462;-76
2022/10/07 12:32:47;;;;;;;;;;;19.70;60.80;;;;;;5084823;27;20391;-86
2022/10/07 12:46:17;;;;;;;;;;;19.60;60.60;;;;;;5054385;28;20321;-72
2022/10/07 12:48:46;;;;;;;;;;;19.60;60.60;;;;;;5050184;28;19960;-73
2022/10/07 12:51:18;;;;;;;;;;;19.60;60.70;;;;;;5051629;28;19928;-70
2022/10/07 12:53:46;;;;;;;;;;;19.60;60.60;;;;;;5050855;28;19970;-73
2022/10/07 12:56:21;;;;;;;;;;;19.60;60.60;;;;;;5068656;28;19920;-80
2022/10/07 13:02:13;;;;;;;;;;;19.60;60.70;;;;;;5067794;28;20020;-84
2022/10/07 13:10:36;;;;;;;;;;;19.60;60.40;;;;;;5071826;27;19926;-81
2022/10/07 13:13:05;;;;;;;;;;;19.50;60.40;;;;;;5071765;28;20384;-84
2022/10/07 13:15:41;;;;;;;;;;;19.60;60.40;;;;;;5066833;28;19925;-77
2022/10/07 13:21:20;;;;;;;;;;;19.50;60.30;;;;;;5062522;28;19927;-80
2022/10/07 13:23:49;;;;;;;;;;;19.50;60.30;;;;;;5057174;28;19980;-73
2022/10/07 13:26:14;;;;;;;;;;;19.50;60.30;;;;;;5057549;28;19925;-79
2022/10/07 13:28:46;;;;;;;;;;;19.50;60.30;;;;;;5079096;28;20265;-73
2022/10/07 13:33:58;;;;;;;;;;;19.60;60.10;;;;;;5077815;28;19916;-78
2022/10/07 13:36:26;;;;;;;;;;;19.60;60.00;;;;;;5059089;28;20222;-72
2022/10/07 13:38:53;;;;;;;;;;;19.60;59.90;;;;;;5055308;28;19921;-70
2022/10/07 13:41:21;;;;;;;;;;;19.60;59.90;;;;;;5056700;28;19921;-69
2022/10/07 13:43:51;;;;;;;;;;;19.60;59.70;;;;;;5068863;28;19929;-73
2022/10/07 13:46:17;;;;;;;;;;;19.60;59.60;;;;;;5089307;28;19924;-73
2022/10/07 13:48:43;;;;;;;;;;;19.70;59.60;;;;;;5070831;28;19932;-71
2022/10/07 13:51:12;;;;;;;;;;;19.70;59.50;;;;;;5068583;28;19921;-71
2022/10/07 13:53:37;;;;;;;;;;;19.60;59.50;;;;;;5060704;28;20387;-71
2022/10/07 13:56:05;;;;;;;;;;;19.70;59.30;;;;;;5065178;28;20011;-73
2022/10/07 13:58:32;;;;;;;;;;;19.70;59.10;;;;;;5067738;28;19945;-73
2022/10/07 14:00:58;;;;;;;;;;;19.70;59.30;;;;;;5064914;28;19920;-74
2022/10/07 14:03:23;;;;;;;;;;;19.70;59.30;;;;;;5063437;28;20224;-80
2022/10/07 14:05:50;;;;;;;;;;;19.70;59.50;;;;;;5065063;28;20032;-79
2022/10/07 14:08:18;;;;;;;;;;;19.80;59.70;;;;;;5082334;28;20479;-73
2022/10/07 14:10:48;;;;;;;;;;;19.70;59.80;;;;;;5065822;28;20371;-74
2022/10/07 14:13:15;;;;;;;;;;;19.70;59.70;;;;;;5065388;28;19932;-73
2022/10/07 14:15:46;;;;;;;;;;;19.80;59.60;;;;;;5065455;28;19925;-74
2022/10/07 14:18:13;;;;;;;;;;;19.70;59.30;;;;;;5066004;28;20027;-74
2022/10/07 14:20:40;;;;;;;;;;;19.80;59.20;;;;;;5064437;28;19921;-75
2022/10/07 14:23:07;;;;;;;;;;;19.80;59.10;;;;;;5063626;28;19917;-76
2022/10/07 14:25:48;;;;;;;;;;;19.80;58.90;;;;;;5061759;28;20273;-76
2022/10/07 14:28:17;;;;;;;;;;;19.70;58.90;;;;;;5065860;28;20272;-76
2022/10/07 14:36:24;;;;;;;;;;;19.80;58.70;;;;;;5086984;28;19916;-76
2022/10/07 14:38:50;;;;;;;;;;;19.70;58.60;;;;;;5069323;28;19927;-77
2022/10/07 14:41:17;;;;;;;;;;;19.70;58.50;;;;;;5086430;28;20050;-76
2022/10/07 14:43:44;;;;;;;;;;;19.80;58.60;;;;;;5062586;28;19916;-76
2022/10/07 14:46:15;;;;;;;;;;;19.80;58.50;;;;;;5072011;28;20174;-76
2022/10/07 14:48:41;;;;;;;;;;;19.80;58.40;;;;;;5068068;28;20009;-73
2022/10/07 14:51:06;;;;;;;;;;;19.80;58.80;;;;;;5054858;28;19960;-82
2022/10/07 14:53:33;;;;;;;;;;;19.80;58.80;;;;;;5071981;28;19921;-83
2022/10/07 14:55:58;;;;;;;;;;;19.80;58.70;;;;;;5070157;28;20367;-83
2022/10/07 14:58:28;;;;;;;;;;;19.80;58.60;;;;;;5056147;28;19967;-84
2022/10/07 15:03:24;;;;;;;;;;;19.80;58.60;;;;;;5052544;28;19920;-84
2022/10/07 15:05:50;;;;;;;;;;;19.70;58.50;;;;;;5052973;28;19923;-84
2022/10/07 15:08:15;;;;;;;;;;;19.70;58.50;;;;;;5036466;28;19917;-84
2022/10/07 15:10:42;;;;;;;;;;;19.70;58.60;;;;;;5052797;28;19917;-84
2022/10/07 15:13:08;;;;;;;;;;;19.70;58.60;;;;;;5034951;28;19956;-84
2022/10/07 15:15:38;;;;;;;;;;;19.70;58.70;;;;;;5035847;28;20364;-84
2022/10/07 15:18:04;;;;;;;;;;;19.70;58.70;;;;;;5036055;28;20360;-77
2022/10/07 15:20:30;;;;;;;;;;;19.60;58.60;;;;;;5036850;28;20259;-83
2022/10/07 15:22:56;;;;;;;;;;;19.70;58.80;;;;;;5053929;28;20011;-85
2022/10/07 15:25:21;;;;;;;;;;;19.60;58.70;;;;;;5036168;28;20299;-84
2022/10/07 15:27:47;;;;;;;;;;;19.60;58.70;;;;;;5054051;28;19917;-84
2022/10/07 15:30:12;;;;;;;;;;;19.60;58.80;;;;;;5036200;28;19917;-85
2022/10/07 15:32:38;;;;;;;;;;;19.60;58.80;;;;;;5036000;28;19921;-85
2022/10/07 15:35:03;;;;;;;;;;;19.60;58.80;;;;;;5035392;28;19967;-84
2022/10/07 15:37:31;;;;;;;;;;;19.60;58.80;;;;;;5052734;28;19928;-85
2022/10/07 15:39:57;;;;;;;;;;;19.60;58.80;;;;;;5035919;28;19995;-84
2022/10/07 15:42:23;;;;;;;;;;;19.60;58.80;;;;;;5036025;28;19923;-85
2022/10/07 15:44:49;;;;;;;;;;;19.60;58.80;;;;;;5035211;28;19920;-84
2022/10/07 15:47:15;;;;;;;;;;;19.60;58.80;;;;;;5053609;28;20037;-83
2022/10/07 15:49:42;;;;;;;;;;;19.60;58.80;;;;;;5036235;28;19916;-84
2022/10/07 15:52:07;;;;;;;;;;;19.50;58.80;;;;;;5035833;28;20011;-84
2022/10/07 15:54:34;;;;;;;;;;;19.50;58.80;;;;;;5035185;28;19999;-83
2022/10/07 15:57:00;;;;;;;;;;;19.60;58.90;;;;;;5034554;28;19955;-84
2022/10/07 15:59:26;;;;;;;;;;;19.50;58.80;;;;;;5035838;28;19956;-85
2022/10/07 16:01:51;;;;;;;;;;;19.50;58.80;;;;;;5048856;28;20008;-84
2022/10/07 16:04:17;;;;;;;;;;;19.50;58.80;;;;;;5031558;28;20421;-83
2022/10/07 16:06:50;;;;;;;;;;;19.50;58.90;;;;;;5032155;28;20379;-84
2022/10/07 16:09:17;;;;;;;;;;;19.50;58.80;;;;;;5032197;28;19917;-84
2022/10/07 16:11:44;;;;;;;;;;;19.50;58.90;;;;;;5032131;28;19956;-84
2022/10/07 16:14:10;;;;;;;;;;;19.50;58.80;;;;;;5032901;28;20407;-84